createdAt,value
2019-01-15T00:02:58.506Z,2.47
2019-01-15T00:08:02.067Z,2.60
2019-01-15T00:13:05.513Z,1.97
2019-01-15T00:18:08.937Z,2.17
2019-01-15T00:23:12.373Z,2.10
2019-01-15T00:28:15.803Z,3.27
2019-01-15T00:33:19.310Z,1.87
2019-01-15T00:38:22.751Z,2.17
2019-01-15T00:43:27.151Z,1.90
2019-01-15T00:48:30.595Z,3.70
2019-01-15T00:53:34.083Z,2.67
2019-01-15T00:58:37.539Z,3.27
2019-01-15T01:03:41.042Z,2.83
2019-01-15T01:08:44.478Z,3.60
2019-01-15T01:13:47.990Z,2.80
2019-01-15T01:18:51.411Z,2.63
2019-01-15T01:23:54.836Z,2.50
2019-01-15T01:28:58.280Z,3.67
2019-01-15T01:34:01.712Z,2.77
2019-01-15T01:39:07.864Z,2.40
2019-01-15T01:44:11.304Z,2.70
2019-01-15T01:49:14.749Z,4.03
2019-01-15T01:54:18.227Z,3.17
2019-01-15T01:59:21.673Z,4.77
2019-01-15T02:04:25.120Z,3.33
2019-01-15T02:09:28.578Z,3.37
2019-01-15T02:14:32.012Z,4.37
2019-01-15T02:19:35.462Z,3.83
2019-01-15T02:24:39.070Z,3.77
2019-01-15T02:29:42.496Z,4.50
2019-01-15T02:34:45.947Z,4.07
2019-01-15T02:39:49.400Z,4.73
2019-01-15T02:44:52.933Z,4.40
2019-01-15T02:49:56.380Z,3.97
2019-01-15T02:54:59.819Z,4.70
2019-01-15T03:00:04.858Z,4.30
2019-01-15T03:05:10.323Z,4.60
2019-01-15T03:10:19.096Z,5.23
2019-01-15T03:15:22.638Z,5.20
2019-01-15T03:20:26.126Z,5.00
2019-01-15T03:25:29.576Z,5.50
2019-01-15T03:30:33.088Z,6.13
2019-01-15T03:35:36.670Z,5.20
2019-01-15T03:40:40.097Z,5.20
2019-01-15T03:45:43.549Z,6.40
2019-01-15T03:50:46.965Z,6.10
2019-01-15T03:55:50.405Z,6.30
2019-01-15T04:00:53.829Z,7.57
2019-01-15T04:05:57.283Z,6.57
2019-01-15T04:11:00.835Z,7.20
2019-01-15T04:16:04.418Z,7.50
2019-01-15T04:21:07.930Z,7.10
2019-01-15T04:26:11.409Z,8.37
2019-01-15T04:31:14.845Z,7.33
2019-01-15T04:36:18.265Z,8.60
2019-01-15T04:41:21.694Z,8.43
2019-01-15T04:46:25.135Z,8.30
2019-01-15T04:51:28.552Z,7.93
2019-01-15T04:56:33.614Z,8.70
2019-01-15T05:01:37.126Z,11.43
2019-01-15T05:06:40.573Z,9.53
2019-01-15T05:11:44.022Z,9.23
2019-01-15T05:16:47.550Z,10.73
2019-01-15T05:21:51.003Z,9.53
2019-01-15T05:26:54.526Z,9.50
2019-01-15T05:31:57.991Z,11.30
2019-01-15T05:37:01.432Z,11.37
2019-01-15T05:42:05.369Z,10.90
2019-01-15T05:47:08.811Z,10.00
2019-01-15T05:52:12.251Z,9.83
2019-01-15T05:57:15.708Z,11.33
2019-01-15T06:02:19.207Z,10.60
2019-01-15T06:07:22.647Z,12.00
2019-01-15T06:12:26.097Z,12.87
2019-01-15T06:17:29.534Z,12.60
2019-01-15T06:22:32.991Z,15.90
2019-01-15T06:27:36.524Z,17.03
2019-01-15T06:32:39.960Z,16.37
2019-01-15T06:37:43.465Z,19.43
2019-01-15T06:42:47.143Z,21.10
2019-01-15T06:47:51.329Z,22.70
2019-01-15T06:52:54.784Z,21.37
2019-01-15T06:57:58.222Z,20.63
2019-01-15T07:03:01.902Z,24.60
2019-01-15T07:08:05.413Z,23.17
2019-01-15T07:13:08.854Z,23.97
2019-01-15T07:18:12.288Z,27.00
2019-01-15T07:23:15.715Z,28.13
2019-01-15T07:28:19.136Z,27.97
2019-01-15T07:33:22.586Z,27.27
2019-01-15T07:38:26.064Z,26.80
2019-01-15T07:43:29.524Z,26.50
2019-01-15T07:48:32.960Z,25.70
2019-01-15T07:53:36.583Z,25.00
2019-01-15T07:58:40.097Z,24.83
2019-01-15T08:03:43.530Z,25.40
2019-01-15T08:08:46.966Z,22.70
2019-01-15T08:13:50.585Z,24.73
2019-01-15T08:18:53.994Z,22.93
2019-01-15T08:23:57.429Z,23.67
2019-01-15T08:29:00.872Z,25.53
2019-01-15T08:34:04.473Z,26.87
2019-01-15T08:39:08.482Z,23.90
2019-01-15T08:44:19.029Z,22.73
2019-01-15T08:49:17.045Z,24.47
2019-01-15T08:54:20.653Z,21.90
2019-01-15T08:59:24.106Z,21.40
2019-01-15T09:04:27.655Z,23.23
2019-01-15T09:09:31.445Z,22.67
2019-01-15T09:14:34.971Z,20.47
2019-01-15T09:19:38.487Z,23.33
2019-01-15T09:24:41.946Z,23.03
2019-01-15T09:29:45.385Z,22.90
2019-01-15T09:34:48.831Z,24.00
2019-01-15T09:39:52.326Z,23.80
2019-01-15T09:44:56.049Z,22.50
2019-01-15T09:49:59.505Z,25.30
2019-01-15T09:55:04.080Z,23.90
2019-01-15T10:00:16.760Z,24.53
2019-01-15T10:05:20.220Z,25.63
2019-01-15T10:10:23.671Z,22.13
2019-01-15T10:15:27.267Z,20.87
2019-01-15T10:20:30.727Z,23.03
2019-01-15T10:25:34.541Z,22.00
2019-01-15T10:30:52.707Z,20.07
2019-01-15T10:35:55.871Z,21.00
2019-01-15T10:40:59.564Z,21.43
2019-01-15T10:46:04.575Z,19.50
2019-01-15T10:51:08.090Z,19.73
2019-01-15T10:56:11.531Z,18.17
2019-01-15T11:01:14.973Z,18.07
2019-01-15T11:06:18.640Z,17.00
2019-01-15T11:11:22.080Z,16.30
2019-01-15T11:16:25.506Z,18.33
2019-01-15T11:21:28.952Z,19.13
2019-01-15T11:26:32.398Z,17.53
2019-01-15T11:31:35.847Z,16.53
2019-01-15T11:36:39.333Z,17.07
2019-01-15T11:41:42.911Z,16.30
2019-01-15T11:46:46.368Z,17.53
2019-01-15T11:51:49.809Z,16.27
2019-01-15T11:56:53.261Z,17.83
2019-01-15T12:01:57.784Z,16.07
2019-01-15T12:07:08.569Z,14.73
2019-01-15T12:12:13.732Z,15.13
2019-01-15T12:17:18.847Z,14.87
2019-01-15T12:22:30.057Z,14.77
2019-01-15T12:27:35.333Z,15.90
2019-01-15T12:32:56.408Z,12.80
2019-01-15T12:38:07.192Z,13.17
2019-01-15T12:43:12.281Z,14.37
2019-01-15T12:48:26.095Z,15.20
2019-01-15T12:53:31.249Z,14.60
2019-01-15T12:58:36.315Z,14.50
2019-01-15T13:03:50.173Z,17.00
2019-01-15T13:08:57.675Z,16.70
2019-01-15T13:14:05.198Z,18.10
2019-01-15T13:19:26.386Z,19.13
2019-01-15T13:24:37.057Z,19.43
2019-01-15T13:29:44.767Z,19.37
2019-01-15T13:34:52.582Z,19.67
2019-01-15T13:40:00.282Z,18.97
2019-01-15T13:45:09.343Z,19.13
2019-01-15T13:50:17.282Z,19.60
2019-01-15T13:55:22.346Z,18.20
2019-01-15T14:00:27.450Z,17.10
2019-01-15T14:05:35.237Z,18.23
2019-01-15T14:10:49.518Z,18.73
2019-01-15T14:16:09.479Z,18.30
2019-01-15T14:21:17.468Z,17.53
2019-01-15T14:26:25.509Z,16.13
2019-01-15T14:31:36.555Z,17.50
2019-01-15T14:36:44.192Z,16.07
2019-01-15T14:42:01.472Z,17.40
2019-01-15T14:47:21.388Z,16.33
2019-01-15T14:52:35.148Z,17.80
2019-01-15T14:57:45.887Z,16.37
2019-01-15T15:02:50.964Z,17.13
2019-01-15T15:08:01.722Z,17.23
2019-01-15T15:13:15.915Z,15.73
2019-01-15T15:18:23.416Z,16.33
2019-01-15T15:23:37.148Z,16.30
2019-01-15T15:28:57.519Z,16.23
2019-01-15T15:34:11.360Z,14.43
2019-01-15T15:39:32.693Z,15.27
2019-01-15T15:44:52.609Z,15.03
2019-01-15T15:50:12.810Z,15.33
2019-01-15T15:55:17.896Z,14.47
2019-01-15T16:00:39.065Z,17.93
2019-01-15T16:05:46.836Z,16.73
2019-01-15T16:10:57.608Z,14.87
2019-01-15T16:16:02.759Z,14.47
2019-01-15T16:21:19.853Z,14.37
2019-01-15T16:26:24.938Z,12.27
2019-01-15T16:31:30.028Z,13.13
2019-01-15T16:36:51.081Z,13.27
2019-01-15T16:41:56.217Z,13.37
2019-01-15T16:47:01.234Z,13.37
2019-01-15T16:52:12.275Z,11.30
2019-01-15T16:57:22.917Z,10.63
2019-01-15T17:02:43.909Z,12.23
2019-01-15T17:07:51.711Z,12.07
2019-01-15T17:12:59.487Z,17.30
2019-01-15T17:18:10.234Z,12.50
2019-01-15T17:23:15.300Z,14.63
2019-01-15T17:28:20.386Z,13.47
2019-01-15T17:33:40.139Z,15.03
2019-01-15T17:38:53.785Z,13.90
2019-01-15T17:44:05.005Z,13.23
2019-01-15T17:49:25.979Z,14.17
2019-01-15T17:54:31.064Z,14.50
2019-01-15T17:59:36.170Z,14.13
2019-01-15T18:04:41.247Z,14.70
2019-01-15T18:09:48.943Z,14.30
2019-01-15T18:15:11.811Z,14.93
2019-01-15T18:20:31.668Z,16.00
2019-01-15T18:25:36.748Z,13.30
2019-01-15T18:30:57.716Z,13.67
2019-01-15T18:36:19.194Z,14.13
2019-01-15T18:41:33.052Z,13.97
2019-01-15T18:46:38.210Z,13.43
2019-01-15T18:51:59.465Z,16.90
2019-01-15T18:57:07.241Z,15.20
2019-01-15T19:02:12.326Z,15.27
2019-01-15T19:07:23.529Z,16.47
2019-01-15T19:12:28.604Z,17.27
2019-01-15T19:17:42.633Z,16.13
2019-01-15T19:22:47.708Z,16.50
2019-01-15T19:28:13.527Z,17.03
2019-01-15T19:33:21.012Z,16.47
2019-01-15T19:38:26.171Z,16.63
2019-01-15T19:43:47.142Z,17.43
2019-01-15T19:48:54.871Z,18.70
2019-01-15T19:54:02.375Z,17.60
2019-01-15T19:59:10.294Z,19.57
2019-01-15T20:04:26.897Z,20.07
2019-01-15T20:09:48.263Z,19.87
2019-01-15T20:15:09.560Z,21.03
2019-01-15T20:20:14.789Z,19.73
2019-01-15T20:25:22.467Z,20.60
2019-01-15T20:30:27.637Z,19.33
2019-01-15T20:35:48.336Z,18.97
2019-01-15T20:41:09.277Z,17.73
2019-01-15T20:46:17.165Z,18.23
2019-01-15T20:51:27.993Z,19.00
2019-01-15T20:56:35.499Z,20.37
2019-01-15T21:01:46.694Z,19.33
2019-01-15T21:07:00.561Z,18.70
2019-01-15T21:12:23.480Z,19.03
2019-01-15T21:17:32.857Z,19.30
2019-01-15T21:22:41.397Z,19.83
2019-01-15T21:27:49.005Z,17.73
2019-01-15T21:33:09.188Z,18.57
2019-01-15T21:38:26.059Z,17.80
2019-01-15T21:43:46.212Z,14.47
2019-01-15T21:48:51.360Z,16.27
2019-01-15T21:53:56.442Z,16.73
2019-01-15T21:59:09.985Z,15.23
2019-01-15T22:04:23.677Z,18.53
2019-01-15T22:09:31.481Z,21.17
2019-01-15T22:14:48.625Z,18.13
2019-01-15T22:20:02.624Z,16.57
2019-01-15T22:25:25.837Z,15.40
2019-01-15T22:30:36.357Z,15.33
2019-01-15T22:35:47.429Z,14.73
2019-01-15T22:41:04.193Z,16.67
2019-01-15T22:46:09.278Z,16.37
2019-01-15T22:51:14.348Z,17.80
2019-01-15T22:56:22.585Z,15.13
2019-01-15T23:01:45.571Z,16.60
2019-01-15T23:06:53.333Z,18.00
2019-01-15T23:11:58.413Z,16.80
2019-01-15T23:17:19.172Z,16.57
2019-01-15T23:22:24.270Z,17.57
2019-01-15T23:27:29.362Z,17.53
2019-01-15T23:32:37.323Z,15.40
2019-01-15T23:37:51.050Z,15.47
2019-01-15T23:42:58.893Z,14.30
2019-01-15T23:48:10.115Z,15.23
2019-01-15T23:53:15.211Z,14.67
2019-01-15T23:58:37.847Z,12.63
